Time;durP1;ratioP1;P1;durP2;ratioP2;P2;SDS_P1;SDS_P2;PMS_P1;PMS_P2;Temp;Humidity;BMP_temperature;BMP_pressure;BME280_temperature;BME280_humidity;BME280_pressure;Samples;Min_cycle;Max_cycle;Signal;HPM_P1;HPM_P2
2022/10/12 00:01:33;;;;;;;28.20;19.20;;;14.10;83.20;;;12.69;100.00;96627.53;4988632;28;20045;-68
2022/10/12 00:03:59;;;;;;;22.55;18.27;;;14.10;83.20;;;12.70;100.00;96621.25;4971243;28;20053;-68
2022/10/12 00:06:25;;;;;;;32.63;19.25;;;14.10;83.10;;;12.70;100.00;96620.41;5006572;28;20065;-65
2022/10/12 00:08:52;;;;;;;28.15;19.63;;;14.10;83.10;;;12.68;100.00;96617.97;4970944;28;20058;-66
2022/10/12 00:11:27;;;;;;;27.13;20.27;;;14.10;82.90;;;12.66;100.00;96622.59;4994054;28;20044;-66
2022/10/12 00:13:53;;;;;;;25.63;19.77;;;14.10;83.10;;;12.64;100.00;96626.44;4988406;28;20029;-67
2022/10/12 00:16:20;;;;;;;24.05;19.45;;;14.10;83.10;;;12.63;100.00;96628.25;4988192;28;20037;-67
2022/10/12 00:18:53;;;;;;;26.98;19.98;;;14.00;83.10;;;12.61;100.00;96622.34;5004723;28;20064;-67
2022/10/12 00:21:19;;;;;;;23.33;18.50;;;14.10;83.20;;;12.61;100.00;96619.72;4977785;28;20465;-66
2022/10/12 00:23:45;;;;;;;24.65;19.77;;;14.10;83.30;;;12.62;100.00;96623.16;5005726;28;20037;-66
2022/10/12 00:26:14;;;;;;;26.33;18.73;;;14.00;83.20;;;12.61;100.00;96616.25;4980719;28;20034;-67
2022/10/12 00:28:40;;;;;;;23.45;17.50;;;14.10;83.20;;;12.60;100.00;96620.72;4969585;28;20037;-66
2022/10/12 00:31:19;;;;;;;25.48;19.90;;;14.00;83.20;;;12.59;100.00;96616.44;4985454;28;20040;-67
2022/10/12 00:33:45;;;;;;;23.20;19.13;;;14.00;83.10;;;12.58;100.00;96614.81;4986935;28;20571;-67
2022/10/12 00:36:13;;;;;;;23.55;19.33;;;14.00;83.00;;;12.59;100.00;96608.53;4944418;28;20125;-66
2022/10/12 00:38:38;;;;;;;25.75;19.25;;;14.00;83.00;;;12.59;100.00;96608.53;5000344;28;20037;-67
2022/10/12 00:41:04;;;;;;;21.35;18.60;;;14.00;83.00;;;12.60;100.00;96612.81;4990516;28;20026;-66
2022/10/12 00:43:33;;;;;;;29.67;18.67;;;14.10;83.00;;;12.58;100.00;96609.53;5000625;28;20034;-67
2022/10/12 00:45:59;;;;;;;24.83;18.85;;;14.10;83.00;;;12.57;100.00;96607.91;4986936;28;20033;-67
2022/10/12 00:48:24;;;;;;;24.83;19.35;;;14.00;83.10;;;12.57;100.00;96602.63;5005472;28;20117;-65
2022/10/12 00:50:50;;;;;;;24.55;19.40;;;14.10;83.00;;;12.55;100.00;96600.19;4967575;28;20057;-66
2022/10/12 00:53:19;;;;;;;28.83;19.33;;;14.00;83.00;;;12.56;100.00;96608.91;4985218;28;20125;-66
2022/10/12 00:55:48;;;;;;;22.55;19.98;;;14.00;83.00;;;12.53;100.00;96602.19;4997056;28;20029;-66
2022/10/12 00:58:14;;;;;;;23.42;20.52;;;14.00;83.00;;;12.53;100.00;96611.94;4969781;28;20120;-67
2022/10/12 01:00:40;;;;;;;27.58;20.42;;;14.00;83.10;;;12.50;100.00;96613.13;5003603;28;20494;-66
2022/10/12 01:03:07;;;;;;;25.05;19.27;;;14.00;83.10;;;12.48;100.00;96601.13;4970633;28;20027;-67
2022/10/12 01:05:33;;;;;;;24.60;19.42;;;13.90;83.20;;;12.48;100.00;96603.78;4973482;28;20034;-67
2022/10/12 01:08:01;;;;;;;25.75;20.38;;;13.90;83.10;;;12.48;100.00;96603.78;4981279;28;20109;-67
2022/10/12 01:10:27;;;;;;;26.35;19.70;;;13.90;83.20;;;12.46;100.00;96611.88;4981047;28;20108;-66
2022/10/12 01:12:53;;;;;;;27.02;20.27;;;13.90;83.20;;;12.46;100.00;96613.69;4971972;28;20037;-67
2022/10/12 01:15:18;;;;;;;27.60;20.00;;;13.90;83.20;;;12.46;100.00;96613.69;4973100;28;20034;-67
2022/10/12 01:18:05;;;;;;;29.73;21.17;;;13.90;83.20;;;12.46;100.00;96618.97;4994808;28;20085;-66
2022/10/12 01:20:56;;;;;;;44.15;21.63;;;13.90;83.30;;;12.45;100.00;96614.69;5003115;28;20049;-66
2022/10/12 01:24:06;;;;;;;26.42;20.40;;;13.90;83.20;;;12.45;100.00;96614.69;5001277;28;20038;-66
2022/10/12 01:26:52;;;;;;;27.65;20.42;;;13.80;83.20;;;12.41;100.00;96610.78;5000626;28;20398;-66
2022/10/12 01:30:07;;;;;;;26.15;20.98;;;13.90;83.30;;;12.42;100.00;96610.59;4988258;28;20088;-66
2022/10/12 01:32:51;;;;;;;27.35;20.60;;;13.90;83.30;;;12.41;100.00;96603.69;4992931;28;20030;-68
2022/10/12 01:35:47;;;;;;;26.00;21.33;;;13.90;83.40;;;12.42;100.00;96600.03;4995879;28;20034;-68
2022/10/12 01:38:54;;;;;;;29.85;22.08;;;13.90;83.20;;;12.42;100.00;96610.59;4983774;28;20045;-66
2022/10/12 01:41:30;;;;;;;26.35;20.45;;;13.90;83.20;;;12.40;100.00;96609.16;4994005;28;20059;-66
2022/10/12 01:43:55;;;;;;;21.88;19.60;;;13.90;83.10;;;12.37;100.00;96612.16;5008562;28;20662;-66
2022/10/12 01:46:24;;;;;;;29.17;21.30;;;13.90;83.00;;;12.38;100.00;96613.78;4990709;28;20038;-66
2022/10/12 01:48:53;;;;;;;25.73;21.30;;;13.90;83.10;;;12.38;100.00;96609.34;5009459;28;20064;-67
2022/10/12 01:51:55;;;;;;;26.63;20.00;;;13.90;82.90;;;12.41;100.00;96602.88;4959027;28;20449;-66
2022/10/12 01:54:59;;;;;;;25.45;19.15;;;13.90;83.10;;;12.40;100.00;96611.78;4992401;28;20062;-66
2022/10/12 01:57:46;;;;;;;24.77;20.50;;;13.80;83.00;;;12.39;100.00;96612.78;4999871;28;20046;-66
2022/10/12 02:00:14;;;;;;;26.50;20.75;;;13.90;83.00;;;12.39;100.00;96610.16;5003165;28;20041;-67
2022/10/12 02:03:01;;;;;;;25.80;20.67;;;13.90;83.00;;;12.38;100.00;96609.34;4969990;28;20040;-67
2022/10/12 02:06:06;;;;;;;24.23;21.23;;;13.80;83.00;;;12.40;100.00;96611.78;4997437;28;20042;-66
2022/10/12 02:08:55;;;;;;;29.80;20.70;;;13.90;83.10;;;12.39;100.00;96604.88;5007912;28;20441;-66
2022/10/12 02:11:24;;;;;;;27.10;20.38;;;13.90;83.10;;;12.39;100.00;96602.25;4989581;28;20082;-68
2022/10/12 02:13:53;;;;;;;28.13;20.85;;;13.90;83.10;;;12.40;100.00;96603.88;4989635;28;20513;-66
2022/10/12 02:16:23;;;;;;;24.80;20.20;;;13.80;83.00;;;12.42;100.00;96609.78;4959741;28;20042;-66
2022/10/12 02:18:51;;;;;;;28.02;20.90;;;13.90;83.00;;;12.41;100.00;96614.22;4985301;28;20065;-66
2022/10/12 02:21:20;;;;;;;25.08;20.58;;;13.90;83.10;;;12.42;100.00;96607.94;4976001;28;20034;-67
2022/10/12 02:23:46;;;;;;;26.85;20.55;;;14.00;83.00;;;12.44;100.00;96613.03;4993936;28;20092;-66
2022/10/12 02:26:12;;;;;;;27.00;24.05;;;13.90;83.10;;;12.45;100.00;96614.69;4984134;28;20030;-66
2022/10/12 02:28:38;;;;;;;26.60;21.20;;;13.90;82.90;;;12.45;100.00;96614.69;5005855;28;20521;-66
2022/10/12 02:31:14;;;;;;;26.35;20.95;;;13.90;82.90;;;12.47;100.00;96612.69;4992284;28;20104;-67
2022/10/12 02:34:17;;;;;;;35.15;28.15;;;14.00;83.00;;;12.48;100.00;96603.78;5009178;28;21094;-66
2022/10/12 02:37:18;;;;;;;28.35;21.98;;;14.00;83.10;;;12.46;100.00;96611.06;4992120;28;20503;-66
2022/10/12 02:39:56;;;;;;;25.75;21.27;;;14.00;82.90;;;12.45;100.00;96604.16;4987376;28;20485;-68
2022/10/12 02:42:34;;;;;;;40.45;33.85;;;13.90;83.00;;;12.46;100.00;96600.50;4991782;28;20042;-67
2022/10/12 02:45:01;;;;;;;69.18;59.60;;;14.00;83.10;;;12.45;100.00;96598.88;4971067;28;20482;-67
2022/10/12 02:47:27;;;;;;;36.00;26.17;;;14.00;83.20;;;12.46;100.00;96595.22;4987554;28;20510;-67
2022/10/12 02:49:54;;;;;;;26.50;21.52;;;14.00;83.00;;;12.46;100.00;96589.94;4990822;28;20042;-69
2022/10/12 02:52:20;;;;;;;27.52;21.50;;;14.00;82.90;;;12.44;100.00;96592.75;4982614;28;20030;-68
2022/10/12 02:54:46;;;;;;;23.90;21.05;;;13.90;82.80;;;12.45;100.00;96589.13;4981151;28;20045;-69
2022/10/12 02:57:12;;;;;;;27.20;21.25;;;14.00;82.90;;;12.46;100.00;96589.94;4988071;28;20528;-68
2022/10/12 02:59:37;;;;;;;25.48;22.08;;;14.00;82.90;;;12.44;100.00;96582.19;4990263;28;20619;-68
2022/10/12 03:02:03;;;;;;;29.38;22.30;;;13.90;83.00;;;12.45;100.00;96583.03;4999121;28;20562;-67
2022/10/12 03:04:29;;;;;;;33.17;23.58;;;14.00;82.90;;;12.46;100.00;96576.75;4993427;28;21475;-67
2022/10/12 03:06:55;;;;;;;30.50;23.35;;;14.00;82.70;;;12.45;100.00;96583.03;4993789;28;20057;-68
2022/10/12 03:09:20;;;;;;;30.77;23.67;;;14.00;82.60;;;12.47;100.00;96587.13;4994097;28;20057;-68
2022/10/12 03:11:46;;;;;;;30.55;23.55;;;14.00;82.60;;;12.49;100.00;96584.28;4991705;28;20030;-68
2022/10/12 03:14:13;;;;;;;44.20;33.58;;;14.00;82.80;;;12.48;100.00;96580.84;4994846;28;20042;-68
2022/10/12 03:16:39;;;;;;;43.67;30.48;;;14.10;82.90;;;12.49;100.00;96581.66;4968650;28;20053;-69
2022/10/12 03:19:05;;;;;;;41.17;30.42;;;14.00;82.90;;;12.49;100.00;96585.09;4971583;28;20514;-68
2022/10/12 03:21:31;;;;;;;39.75;25.63;;;14.00;83.00;;;12.50;100.00;96580.66;5009893;28;20042;-67
2022/10/12 03:23:57;;;;;;;45.05;30.90;;;14.00;82.90;;;12.52;100.00;96594.47;4973219;28;20116;-68
2022/10/12 03:26:22;;;;;;;39.53;27.67;;;14.00;82.80;;;12.51;100.00;96588.38;4990633;28;20077;-68
2022/10/12 03:28:48;;;;;;;42.63;26.27;;;14.00;82.80;;;12.52;100.00;96594.47;5003923;28;20066;-69
2022/10/12 03:31:14;;;;;;;38.53;25.95;;;14.10;82.90;;;12.52;100.00;96597.91;5005957;28;20068;-68
2022/10/12 03:33:40;;;;;;;39.78;26.00;;;14.10;82.80;;;12.54;100.00;96603.00;4991339;28;20033;-69
2022/10/12 03:36:06;;;;;;;40.72;28.13;;;14.10;82.70;;;12.53;100.00;96602.19;4991451;28;20771;-68
2022/10/12 03:38:32;;;;;;;44.10;27.65;;;14.10;83.00;;;12.54;100.00;96597.72;5007786;28;20038;-68
2022/10/12 03:40:58;;;;;;;39.60;27.58;;;14.10;83.00;;;12.54;100.00;96603.00;4985678;28;20105;-68
2022/10/12 03:43:24;;;;;;;45.72;26.58;;;14.00;83.10;;;12.54;100.00;96603.00;4974648;28;20120;-68
2022/10/12 03:45:51;;;;;;;41.53;27.70;;;14.00;83.20;;;12.52;100.00;96599.75;4993689;28;20034;-69
2022/10/12 03:48:17;;;;;;;45.03;29.35;;;14.00;83.30;;;12.53;100.00;96591.63;4987248;28;20045;-68
2022/10/12 03:50:47;;;;;;;47.55;28.50;;;14.00;83.30;;;12.51;100.00;96598.94;4987700;28;20054;-67
2022/10/12 03:53:13;;;;;;;51.78;30.08;;;14.00;83.40;;;12.50;100.00;96596.47;4990005;28;20050;-64
2022/10/12 03:55:38;;;;;;;51.63;30.67;;;14.00;83.50;;;12.49;100.00;96593.03;5009632;28;20605;-64
2022/10/12 03:58:04;;;;;;;53.38;31.83;;;14.00;83.50;;;12.49;100.00;96594.84;4990660;28;20531;-64
2022/10/12 04:00:30;;;;;;;58.28;33.05;;;14.00;83.60;;;12.49;100.00;96600.13;4992151;28;20050;-67
2022/10/12 04:02:56;;;;;;;62.80;33.90;;;14.00;83.80;;;12.47;100.00;96597.69;5022798;28;20052;-67
2022/10/12 04:05:21;;;;;;;71.30;35.78;;;14.00;83.90;;;12.46;100.00;96603.16;5028712;28;20536;-67
2022/10/12 04:07:47;;;;;;;54.65;33.22;;;14.00;84.00;;;12.45;100.00;96596.22;4992005;28;20029;-67
2022/10/12 04:10:13;;;;;;;57.50;32.10;;;14.00;83.90;;;12.46;100.00;96597.88;5008145;28;20135;-67
2022/10/12 04:12:39;;;;;;;56.75;34.28;;;14.00;84.10;;;12.46;100.00;96600.50;5008589;28;20092;-67
2022/10/12 04:15:05;;;;;;;66.47;34.47;;;13.90;84.20;;;12.45;100.00;96598.88;5006821;28;20057;-67
2022/10/12 04:17:31;;;;;;;61.13;34.42;;;13.90;84.20;;;12.45;100.00;96604.97;4988858;28;20185;-67
2022/10/12 04:19:56;;;;;;;58.25;32.60;;;14.00;84.20;;;12.44;100.00;96594.56;5008534;28;20098;-67
2022/10/12 04:22:25;;;;;;;62.10;35.95;;;13.90;84.30;;;12.42;100.00;96602.69;4992670;28;20046;-67
2022/10/12 04:24:51;;;;;;;66.50;35.00;;;13.90;84.40;;;12.40;100.00;96588.03;4992737;28;20030;-67
2022/10/12 04:27:17;;;;;;;63.15;36.72;;;13.90;84.50;;;12.41;100.00;96597.59;5008608;28;20061;-65
2022/10/12 04:29:42;;;;;;;65.32;35.50;;;13.90;84.60;;;12.41;100.00;96592.31;4975418;28;20065;-65
2022/10/12 04:32:08;;;;;;;76.30;48.17;;;13.90;84.60;;;12.41;100.00;96593.13;5008379;28;20050;-65
2022/10/12 04:34:35;;;;;;;73.65;41.65;;;13.90;84.70;;;12.40;100.00;96595.97;5008179;28;20120;-65
2022/10/12 04:37:01;;;;;;;72.78;38.78;;;13.90;84.90;;;12.38;100.00;96596.16;4987090;28;20034;-65
2022/10/12 04:39:27;;;;;;;69.60;36.70;;;13.80;85.00;;;12.38;100.00;96597.97;5004451;28;20155;-65
2022/10/12 04:41:53;;;;;;;63.75;37.83;;;13.90;85.00;;;12.37;100.00;96596.34;4992012;28;20022;-65
2022/10/12 04:44:19;;;;;;;66.28;37.92;;;13.80;85.00;;;12.38;100.00;96597.97;5008536;28;20159;-67
2022/10/12 04:46:45;;;;;;;70.15;38.78;;;13.90;85.10;;;12.36;100.00;96598.16;4991880;28;20033;-67
2022/10/12 04:49:11;;;;;;;64.47;39.08;;;13.90;85.10;;;12.34;100.00;96602.81;5008092;28;20117;-67
2022/10/12 04:51:37;;;;;;;68.18;39.70;;;13.90;85.20;;;12.35;100.00;96598.34;4992307;28;20050;-67
2022/10/12 04:54:02;;;;;;;64.53;39.08;;;13.90;85.10;;;12.36;100.00;96602.63;4975603;28;20113;-67
2022/10/12 04:56:28;;;;;;;72.95;40.45;;;13.80;85.20;;;12.36;100.00;96599.97;5008418;28;20121;-65
2022/10/12 04:58:54;;;;;;;71.63;39.13;;;13.90;85.10;;;12.35;100.00;96604.44;4975559;28;20111;-65
2022/10/12 05:01:20;;;;;;;68.22;39.28;;;13.90;85.20;;;12.33;100.00;96608.28;5008342;28;20042;-65
2022/10/12 05:03:46;;;;;;;66.75;39.67;;;13.80;85.20;;;12.34;100.00;96604.63;4971657;28;20038;-65
2022/10/12 05:06:11;;;;;;;67.30;37.60;;;13.80;85.30;;;12.34;100.00;96602.81;4972577;28;20104;-65
2022/10/12 05:08:37;;;;;;;70.57;40.25;;;13.90;85.40;;;12.34;100.00;96602.00;4984306;28;20033;-65
2022/10/12 05:11:03;;;;;;;77.03;39.67;;;13.90;85.30;;;12.34;100.00;96607.28;4995651;28;20022;-65
2022/10/12 05:13:29;;;;;;;70.55;39.35;;;13.90;85.30;;;12.34;100.00;96599.34;4994170;28;20054;-65
2022/10/12 05:15:55;;;;;;;74.15;39.80;;;13.90;85.30;;;12.35;100.00;96612.34;5012062;28;20030;-65
2022/10/12 05:18:20;;;;;;;67.22;40.53;;;13.90;85.40;;;12.33;100.00;96605.63;4995905;28;20044;-65
2022/10/12 05:20:46;;;;;;;66.35;40.25;;;13.80;85.40;;;12.34;100.00;96604.63;4995487;28;20034;-65
2022/10/12 05:23:12;;;;;;;70.32;40.40;;;13.90;85.50;;;12.33;100.00;96608.28;4995612;28;20068;-65
2022/10/12 05:25:38;;;;;;;70.07;40.10;;;13.80;85.50;;;12.33;100.00;96610.91;5012104;28;20486;-65
2022/10/12 05:28:03;;;;;;;70.90;41.42;;;13.90;85.60;;;12.32;100.00;96611.91;4974589;28;20137;-65
2022/10/12 05:30:29;;;;;;;71.22;41.58;;;13.90;85.70;;;12.32;100.00;96617.19;4984482;28;20038;-65
2022/10/12 05:32:55;;;;;;;74.50;41.35;;;13.80;85.70;;;12.31;100.00;96620.84;5006269;28;20521;-65
2022/10/12 05:35:21;;;;;;;72.32;43.50;;;13.80;85.80;;;12.30;100.00;96619.19;4979212;28;20037;-66
2022/10/12 05:37:46;;;;;;;75.05;39.83;;;13.90;85.80;;;12.32;100.00;96619.84;4979098;28;20386;-65
2022/10/12 05:40:12;;;;;;;75.70;41.83;;;13.90;85.80;;;12.32;100.00;96619.84;5010514;28;20492;-65
2022/10/12 05:42:38;;;;;;;77.07;41.42;;;13.90;85.80;;;12.33;100.00;96622.28;4994999;28;20081;-65
2022/10/12 05:45:04;;;;;;;78.63;42.13;;;13.90;85.80;;;12.34;100.00;96623.09;4994319;28;20452;-65
2022/10/12 05:47:30;;;;;;;79.40;41.88;;;13.90;85.80;;;12.34;100.00;96615.19;4978713;28;20073;-65
2022/10/12 05:49:56;;;;;;;75.32;41.13;;;13.90;85.90;;;12.33;100.00;96613.56;4995054;28;20215;-65
2022/10/12 05:52:22;;;;;;;77.30;41.03;;;13.90;85.80;;;12.34;100.00;96615.19;5011886;28;20132;-65
2022/10/12 05:54:48;;;;;;;88.70;42.25;;;13.90;85.80;;;12.33;100.00;96626.75;4962382;28;20088;-65
2022/10/12 05:57:14;;;;;;;86.78;41.50;;;13.80;85.80;;;12.32;100.00;96628.56;4995148;28;20038;-65
2022/10/12 05:59:41;;;;;;;77.30;41.40;;;13.80;86.00;;;12.32;100.00;96633.00;4994196;28;20391;-65
2022/10/12 06:02:07;;;;;;;77.13;40.63;;;13.90;85.90;;;12.33;100.00;96638.09;4978921;28;20498;-65
2022/10/12 06:04:32;;;;;;;75.13;41.08;;;13.90;86.10;;;12.34;100.00;96639.75;4978261;28;20123;-65
2022/10/12 06:06:58;;;;;;;69.28;38.50;;;13.90;86.30;;;12.37;100.00;96638.53;5011273;28;20046;-65
2022/10/12 06:09:24;;;;;;;63.63;37.97;;;14.00;86.50;;;12.40;100.00;96631.06;4978521;28;20121;-65
2022/10/12 06:11:49;;;;;;;66.57;37.72;;;14.00;86.30;;;12.44;100.00;96642.06;5011077;28;20054;-65
2022/10/12 06:14:15;;;;;;;62.58;37.35;;;14.10;86.00;;;12.46;100.00;96637.44;4977837;28;20068;-65
2022/10/12 06:16:41;;;;;;;63.80;37.75;;;14.10;85.90;;;12.49;100.00;96644.97;4994660;28;20120;-66
2022/10/12 06:19:12;;;;;;;64.10;36.20;;;14.10;85.80;;;12.50;100.00;96638.69;5010644;28;20132;-65
2022/10/12 06:21:37;;;;;;;65.80;37.58;;;14.10;85.80;;;12.52;100.00;96636.69;5010275;28;20022;-66
2022/10/12 06:24:03;;;;;;;59.42;35.22;;;14.20;85.60;;;12.55;100.00;96646.88;4994273;28;20441;-65
2022/10/12 06:26:29;;;;;;;58.78;35.97;;;14.20;85.60;;;12.56;100.00;96646.66;4978265;28;20627;-65
2022/10/12 06:28:55;;;;;;;62.15;37.00;;;14.20;85.40;;;12.58;100.00;96641.22;4977290;28;20391;-65
2022/10/12 06:31:21;;;;;;;61.33;36.25;;;14.20;85.40;;;12.59;100.00;96648.13;5010895;28;20117;-65
2022/10/12 06:33:49;;;;;;;56.75;36.53;;;14.20;85.30;;;12.63;100.00;96648.56;4994732;28;20034;-65
2022/10/12 06:36:14;;;;;;;53.00;32.75;;;14.30;85.20;;;12.66;100.00;96648.16;4994450;28;20060;-65
2022/10/12 06:38:40;;;;;;;61.75;36.60;;;14.30;85.20;;;12.69;100.00;96646.00;4992602;28;20525;-65
2022/10/12 06:41:06;;;;;;;60.72;35.13;;;14.30;85.20;;;12.71;100.00;96646.63;4994577;28;20141;-65
2022/10/12 06:43:31;;;;;;;53.08;31.92;;;14.30;85.10;;;12.73;100.00;96649.88;4958654;28;20056;-65
2022/10/12 06:46:00;;;;;;;49.67;31.80;;;14.40;85.20;;;12.77;100.00;96647.69;4991093;28;20576;-65
2022/10/12 06:48:26;;;;;;;58.33;33.97;;;14.40;85.00;;;12.78;100.00;96644.84;4974852;28;20041;-65
2022/10/12 06:50:52;;;;;;;61.63;37.47;;;14.40;85.00;;;12.79;100.00;96649.13;4990653;28;20030;-65
2022/10/12 06:53:18;;;;;;;52.97;35.53;;;14.40;84.80;;;12.79;100.00;96654.41;4997734;28;20086;-65
2022/10/12 06:55:44;;;;;;;62.20;37.63;;;14.40;84.90;;;12.78;100.00;96654.59;4994188;28;20561;-65
2022/10/12 06:58:10;;;;;;;57.85;36.10;;;14.40;84.90;;;12.77;100.00;96656.41;4993652;28;20038;-65
2022/10/12 07:00:36;;;;;;;64.40;36.28;;;14.30;85.00;;;12.77;100.00;96661.69;4993718;28;20034;-65
2022/10/12 07:03:01;;;;;;;59.42;37.65;;;14.30;85.10;;;12.76;100.00;96654.78;5010378;28;20552;-65
2022/10/12 07:05:27;;;;;;;56.08;35.90;;;14.40;85.10;;;12.77;100.00;96653.78;4977750;28;20049;-65
2022/10/12 07:07:53;;;;;;;55.33;35.22;;;14.40;85.10;;;12.80;100.00;96653.41;4992709;28;20061;-65
2022/10/12 07:10:19;;;;;;;61.80;35.88;;;14.40;85.00;;;12.83;100.00;96653.03;5010176;28;20113;-65
2022/10/12 07:12:44;;;;;;;52.17;35.55;;;14.50;84.80;;;12.83;100.00;96655.66;4993446;28;20053;-65
2022/10/12 07:15:10;;;;;;;55.90;34.08;;;14.50;84.80;;;12.86;100.00;96660.56;5010188;28;20129;-66
2022/10/12 07:17:36;;;;;;;53.30;34.08;;;14.50;84.70;;;12.89;100.00;96654.91;5009803;28;20416;-66
2022/10/12 07:20:02;;;;;;;56.33;34.90;;;14.60;84.50;;;12.93;100.00;96659.81;5010044;28;20113;-66
2022/10/12 07:22:28;;;;;;;54.40;34.13;;;14.60;84.50;;;12.95;100.00;96657.81;4991688;28;20528;-67
2022/10/12 07:24:53;;;;;;;50.42;33.13;;;14.60;84.40;;;12.97;100.00;96663.72;5011089;28;20049;-66
2022/10/12 07:27:19;;;;;;;47.90;30.90;;;14.60;84.40;;;12.97;100.00;96667.16;4993596;28;20056;-67
2022/10/12 07:29:45;;;;;;;41.20;29.42;;;14.60;84.10;;;12.99;100.00;96665.16;5009687;28;20526;-67
2022/10/12 07:32:11;;;;;;;43.10;29.67;;;14.70;83.90;;;13.02;100.00;96663.94;4993529;28;20562;-66
2022/10/12 07:34:36;;;;;;;46.75;30.63;;;14.70;83.90;;;13.04;100.00;96668.03;4992155;28;20454;-66
2022/10/12 07:37:02;;;;;;;44.30;30.70;;;14.70;83.80;;;13.07;100.00;96672.13;5009486;28;20691;-66
2022/10/12 07:39:28;;;;;;;40.65;29.90;;;14.80;83.60;;;13.12;100.00;96669.72;4992961;28;20517;-66
2022/10/12 07:41:54;;;;;;;51.25;38.65;;;14.80;83.60;;;13.14;100.00;96673.00;5009472;28;20037;-66
2022/10/12 07:44:20;;;;;;;42.13;28.80;;;14.90;83.40;;;13.21;100.00;96681.00;4993361;28;20105;-66
2022/10/12 07:46:45;;;;;;;37.47;28.10;;;15.00;83.10;;;13.23;100.00;96673.72;4992750;28;20041;-66
2022/10/12 07:49:12;;;;;;;35.22;26.77;;;15.00;83.00;;;13.28;100.00;96685.31;4983643;28;20502;-66
2022/10/12 07:51:38;;;;;;;35.97;26.83;;;15.00;83.00;;;13.31;100.00;96682.31;4984116;28;20155;-66
2022/10/12 07:54:03;;;;;;;35.63;27.45;;;15.10;82.80;;;13.35;100.00;96680.94;4989645;28;20034;-66
2022/10/12 07:56:29;;;;;;;35.95;26.83;;;15.10;82.90;;;13.39;100.00;96689.28;4973271;28;20418;-66
2022/10/12 07:58:56;;;;;;;33.38;25.05;;;15.10;82.70;;;13.42;100.00;96686.25;4957077;28;20058;-66
2022/10/12 08:01:24;;;;;;;30.85;24.15;;;15.10;82.30;;;13.45;100.00;96685.88;4973788;28;20053;-66
2022/10/12 08:03:50;;;;;;;36.05;24.20;;;15.10;82.10;;;13.45;100.00;96686.69;4957375;28;20038;-66
2022/10/12 08:06:18;;;;;;;30.65;24.13;;;15.10;82.30;;;13.46;100.00;96684.84;4978045;28;20406;-66
2022/10/12 08:08:44;;;;;;;31.88;23.70;;;15.10;82.20;;;13.44;100.00;96690.34;4992214;28;20029;-67
2022/10/12 08:11:10;;;;;;;29.23;22.98;;;15.10;82.10;;;13.44;100.00;96685.06;4992700;28;20053;-66
2022/10/12 08:13:36;;;;;;;31.27;22.17;;;15.10;81.60;;;13.45;100.00;96683.22;5009070;28;20034;-66
2022/10/12 08:16:03;;;;;;;28.42;21.75;;;15.10;81.30;;;13.47;100.00;96687.31;5009028;28;20431;-66
2022/10/12 08:18:29;;;;;;;26.30;21.20;;;15.10;81.40;;;13.51;100.00;96689.56;4975897;28;20038;-67
2022/10/12 08:20:55;;;;;;;25.73;21.60;;;15.20;81.50;;;13.56;100.00;96687.16;4991953;28;20026;-66
2022/10/12 08:23:21;;;;;;;26.65;20.55;;;15.30;81.50;;;13.60;100.00;96691.88;4990664;28;20525;-66
2022/10/12 08:25:54;;;;;;;25.38;21.00;;;15.40;80.80;;;13.64;100.00;96684.38;4973282;28;20062;-66
2022/10/12 08:28:20;;;;;;;34.95;21.48;;;15.40;80.40;;;13.67;100.00;96686.63;4988963;28;20046;-66
2022/10/12 08:30:46;;;;;;;29.83;22.10;;;15.40;80.10;;;13.71;100.00;96685.22;4972729;28;20031;-66
2022/10/12 08:33:15;;;;;;;26.42;21.08;;;15.50;80.10;;;13.75;100.00;96681.19;4989284;28;20045;-66
2022/10/12 08:35:40;;;;;;;29.33;21.63;;;15.50;79.60;;;13.79;100.00;96682.41;5002615;28;20116;-66
2022/10/12 08:38:07;;;;;;;25.40;20.20;;;15.60;79.50;;;13.80;100.00;96684.06;5008249;28;20030;-66
2022/10/12 08:40:42;;;;;;;25.80;20.02;;;15.60;78.90;;;13.83;100.00;96680.22;5008338;28;20030;-66
2022/10/12 08:43:20;;;;;;;23.15;20.05;;;15.60;78.90;;;13.87;100.00;96684.94;4992243;28;20087;-66
2022/10/12 08:45:53;;;;;;;23.85;19.02;;;15.60;79.40;;;13.91;100.00;96691.44;5008514;28;20038;-66
2022/10/12 08:48:55;;;;;;;23.13;18.95;;;15.70;79.50;;;13.97;100.00;96684.56;5007309;28;20117;-66
2022/10/12 08:51:23;;;;;;;22.20;17.85;;;15.70;79.50;;;13.99;100.00;96693.94;4994698;28;20141;-66
2022/10/12 08:54:11;;;;;;;24.23;19.55;;;15.80;79.30;;;14.07;100.00;96690.31;5008581;28;20033;-66
2022/10/12 08:56:39;;;;;;;21.15;18.08;;;15.90;78.40;;;14.07;100.00;96691.13;5008262;28;20577;-66
2022/10/12 08:59:08;;;;;;;21.98;17.85;;;15.80;78.50;;;14.08;100.00;96684.84;4991185;28;20077;-66
2022/10/12 09:02:19;;;;;;;23.17;18.20;;;15.80;78.50;;;14.07;100.00;96696.44;4972821;28;20386;-66
2022/10/12 09:05:08;;;;;;;23.88;18.23;;;15.70;78.70;;;14.04;100.00;96696.81;4989328;28;20417;-66
2022/10/12 09:07:36;;;;;;;23.75;18.95;;;15.60;78.90;;;14.03;100.00;96700.47;4973655;28;20031;-66
2022/10/12 09:10:52;;;;;;;24.02;19.13;;;15.70;78.80;;;14.05;100.00;96695.81;4989024;28;20453;-66
2022/10/12 09:13:45;;;;;;;23.70;18.50;;;15.80;78.90;;;14.06;100.00;96699.28;4973284;28;20061;-66
2022/10/12 09:16:25;;;;;;;22.88;18.52;;;15.80;78.60;;;14.08;100.00;96692.78;5008388;28;20034;-66
2022/10/12 09:18:57;;;;;;;25.15;20.10;;;15.80;78.50;;;14.12;100.00;96697.66;5007574;28;20037;-66
2022/10/12 09:21:24;;;;;;;23.38;19.67;;;15.80;78.60;;;14.13;100.00;96697.47;4992069;28;20038;-66
2022/10/12 09:23:50;;;;;;;30.00;24.67;;;15.80;78.40;;;14.14;100.00;96700.94;4991967;28;20057;-66
2022/10/12 09:26:39;;;;;;;26.23;21.55;;;15.90;78.60;;;14.16;100.00;96699.72;4974924;28;20070;-67
2022/10/12 09:29:21;;;;;;;26.50;21.60;;;15.80;78.30;;;14.18;100.00;96696.88;4993025;28;21107;-66
2022/10/12 09:32:08;;;;;;;20.42;17.55;;;15.90;78.50;;;14.20;100.00;96694.84;5008386;28;20042;-66
2022/10/12 09:34:34;;;;;;;24.08;17.05;;;15.90;78.40;;;14.21;100.00;96701.78;5007849;28;20105;-67
2022/10/12 09:37:02;;;;;;;22.58;17.42;;;16.00;77.50;;;14.21;100.00;96697.28;4991505;28;20057;-66
2022/10/12 09:39:35;;;;;;;22.13;17.45;;;16.00;76.80;;;14.23;100.00;96702.38;5007925;28;20038;-66
2022/10/12 09:42:01;;;;;;;21.02;17.23;;;16.00;77.10;;;14.27;100.00;96701.00;4990028;28;20594;-66
2022/10/12 09:44:45;;;;;;;21.65;16.90;;;16.10;76.80;;;14.30;100.00;96705.91;4975514;28;20128;-67
2022/10/12 09:47:20;;;;;;;18.95;15.77;;;16.10;76.90;;;14.33;100.00;96695.72;4992440;28;20144;-66
2022/10/12 09:49:49;;;;;;;21.58;16.35;;;16.10;76.90;;;14.38;100.00;96697.78;5007964;28;20555;-66
2022/10/12 09:52:16;;;;;;;20.50;17.20;;;16.30;76.90;;;14.43;100.00;96699.81;4988416;28;20030;-66
2022/10/12 09:54:48;;;;;;;23.02;18.33;;;16.20;76.80;;;14.48;100.00;96703.53;4955929;28;20584;-67
2022/10/12 09:57:35;;;;;;;21.58;17.48;;;16.40;76.70;;;14.56;100.00;96706.03;4974627;28;20042;-66
2022/10/12 10:00:05;;;;;;;24.27;19.73;;;16.50;76.50;;;14.58;100.00;96701.34;4975952;28;20030;-67
2022/10/12 10:02:31;;;;;;;22.80;19.23;;;16.50;76.40;;;14.65;100.00;96698.69;4977358;28;20100;-67
2022/10/12 10:04:58;;;;;;;24.50;18.52;;;16.60;76.40;;;14.74;100.00;96691.41;4991718;28;20026;-67
2022/10/12 10:07:29;;;;;;;24.30;18.70;;;16.80;76.20;;;14.84;100.00;96699.78;4994740;28;20026;-67
2022/10/12 10:10:18;;;;;;;24.08;17.60;;;16.90;75.90;;;14.96;100.00;96695.53;5011365;28;20141;-66
2022/10/12 10:12:51;;;;;;;23.10;17.50;;;16.90;75.50;;;15.07;100.00;96702.88;5010832;28;20037;-67